Pagrindinis puslapis
METAR-TAF:

METAR-TAF

Oro uostai :

Natalis, Rio Grande do Norte, Brazilija

platuma: 05-55S, ilguma: 035-15W, Aukštis: 52 m

Dabartinis oras

Ataskaita buvo paskelbta 31 minutes, ne 22:00 UTC
Vėjas 8 kt iš Pietryčių
Temperatūra 25°C
Drėgmė 74%
Slėgis 1014 hPa
Matomumas 10 km arba daugiau
Mažai debesys ne aukštis 2100 ft
Išsisklaidę debesys ne aukštis 5000 ft

METAR: SBNT 162200Z 14008KT 9999 FEW021 SCT050 25/20 Q1014

Laikas: 19:31 (22:31 UTC)

Prognozė

Ataskaita buvo paskelbta 6 valandos ir 31 minutes, ne 16:00 UTC
Prognozė galioja nuo 16 metu 18 UTC su 17 metu 06 UTC
Vėjas 15 kt iš Pietų/Pietryčių
Matomumas 10 km arba daugiau
Mažai debesys ne aukštis 2300 ft
Tapsmas
nuo 16 metu 22 UTC su 16 metu 24 UTC
Vėjas 8 kt iš Pietų/Pietryčių
Mažai debesys ne aukštis 1900 ft
Tapsmas
nuo 17 metu 00 UTC su 17 metu 02 UTC
Išsisklaidę debesys ne aukštis 1800 ft

TAF: SBNT 161600Z 1618/1706 15015KT 9999 FEW023 TX28/1618Z TN23/1706Z BECMG 1622/1624 15008KT FEW019 BECMG 1700/1702 SCT018 RMK PAY

Orai ataskaitas ir orų prognozės (METAR, TAF).

turimą stotys yra geltonos ir raudonos taškus žemėlapyje.

Perkelti pele per norėdami pamatyti stoties vardą.

Tada spustelėkite, norėdami matyti oro stebėjimo ir prognozės.

Norėdami pakeisti žemėlapį: spustelėkite ant žalios mygtukų su juodo kryžiaus žemyn,; žalią mygtuką su brūkšneliu, jei norite nutolinti; arba žalių rodyklių gretimoms žemėlapius.


METAR-TAF: